Time;durP1;ratioP1;P1;durP2;ratioP2;P2;SDS_P1;SDS_P2;PMS_P1;PMS_P2;Temp;Humidity;BMP_temperature;BMP_pressure;BME280_temperature;BME280_humidity;BME280_pressure;Samples;Min_cycle;Max_cycle;Signal;HPM_P1;HPM_P2
2024/04/09 00:00:44;;;;;;;1999.90;999.90;;;10.40;99.90;;;;;;5492747;26;20007;-69
2024/04/09 00:03:10;;;;;;;1999.90;999.90;;;10.40;99.90;;;;;;5493323;26;19990;-69
2024/04/09 00:05:39;;;;;;;1999.90;999.90;;;10.40;99.90;;;;;;5492777;26;19998;-69
2024/04/09 00:08:07;;;;;;;1999.90;999.90;;;10.40;99.90;;;;;;5492863;26;20013;-69
2024/04/09 00:10:36;;;;;;;1999.90;999.90;;;10.40;99.90;;;;;;5492786;26;19998;-69
2024/04/09 00:13:04;;;;;;;1999.90;999.90;;;10.30;99.90;;;;;;5492922;26;20006;-69
2024/04/09 00:15:30;;;;;;;1999.90;999.90;;;10.30;99.90;;;;;;5493243;26;19994;-69
2024/04/09 00:17:56;;;;;;;1999.90;999.90;;;10.30;99.90;;;;;;5493217;26;20030;-69
2024/04/09 00:20:25;;;;;;;1999.90;999.90;;;10.30;99.90;;;;;;5500358;26;20328;-69
2024/04/09 00:22:54;;;;;;;1999.90;999.90;;;10.30;99.90;;;;;;5508314;26;20448;-69
2024/04/09 00:25:22;;;;;;;1999.90;999.90;;;10.20;99.90;;;;;;5492421;26;19994;-69
2024/04/09 00:27:55;;;;;;;1999.90;999.90;;;10.20;99.90;;;;;;5492793;26;19990;-69
2024/04/09 00:30:21;;;;;;;1999.90;999.90;;;10.30;99.90;;;;;;5492738;26;20009;-69
2024/04/09 00:32:54;;;;;;;1999.90;999.90;;;10.20;99.90;;;;;;5492802;26;20558;-69
2024/04/09 00:35:23;;;;;;;1999.90;999.90;;;10.20;99.90;;;;;;5492892;26;19991;-69
2024/04/09 00:37:54;;;;;;;1999.90;999.90;;;10.20;99.90;;;;;;5492605;26;19994;-69
2024/04/09 00:40:21;;;;;;;1999.90;999.90;;;10.30;99.90;;;;;;5492697;26;19994;-69
2024/04/09 00:42:50;;;;;;;1999.90;999.90;;;10.30;99.90;;;;;;5492680;26;20429;-69
2024/04/09 00:45:22;;;;;;;1999.90;999.90;;;10.30;99.90;;;;;;5492537;26;20012;-69
2024/04/09 00:47:49;;;;;;;1999.90;999.90;;;10.30;99.90;;;;;;5492596;26;20005;-75
2024/04/09 00:50:17;;;;;;;1999.90;999.90;;;10.30;99.90;;;;;;5492511;26;19994;-68
2024/04/09 00:52:45;;;;;;;1999.90;999.90;;;10.30;99.90;;;;;;5492387;26;20063;-69
2024/04/09 00:55:11;;;;;;;1999.90;999.90;;;10.30;99.90;;;;;;5491620;26;20022;-69
2024/04/09 00:57:41;;;;;;;1999.90;999.90;;;10.30;99.90;;;;;;5492513;26;19994;-69
2024/04/09 01:00:12;;;;;;;1999.90;999.90;;;10.20;99.90;;;;;;5490977;26;19998;-74
2024/04/09 01:02:38;;;;;;;1999.90;999.90;;;10.20;99.90;;;;;;5492388;26;19998;-69
2024/04/09 01:05:05;;;;;;;1999.90;999.90;;;10.30;99.90;;;;;;5492127;26;20003;-69
2024/04/09 01:07:32;;;;;;;1999.90;999.90;;;10.40;99.90;;;;;;5492091;26;20445;-69
2024/04/09 01:09:58;;;;;;;1999.90;999.90;;;10.30;99.90;;;;;;5492143;26;20027;-69
2024/04/09 01:12:24;;;;;;;1999.90;999.90;;;10.30;99.90;;;;;;5492057;26;20002;-69
2024/04/09 01:14:50;;;;;;;1999.90;999.90;;;10.30;99.90;;;;;;5492092;26;20001;-69
2024/04/09 01:17:16;;;;;;;1999.90;999.90;;;10.30;99.90;;;;;;5492179;26;20026;-75
2024/04/09 01:19:41;;;;;;;1999.90;999.90;;;10.30;99.90;;;;;;5492122;26;20429;-69
2024/04/09 01:22:08;;;;;;;1999.90;999.90;;;10.30;99.90;;;;;;5515812;26;20002;-69
2024/04/09 01:24:34;;;;;;;1999.90;999.90;;;10.40;99.90;;;;;;5491938;26;19999;-69
2024/04/09 01:27:04;;;;;;;1999.90;999.90;;;10.40;99.90;;;;;;5491486;26;20017;-68
2024/04/09 01:29:31;;;;;;;1999.90;999.90;;;10.40;99.90;;;;;;5492371;26;20333;-69
2024/04/09 01:31:57;;;;;;;1999.90;999.90;;;10.40;99.90;;;;;;5491953;26;19994;-69
2024/04/09 01:34:22;;;;;;;1999.90;999.90;;;10.40;99.90;;;;;;5491927;26;20004;-69
2024/04/09 01:36:48;;;;;;;1999.90;999.90;;;10.40;99.90;;;;;;5491669;26;19998;-69
2024/04/09 01:39:15;;;;;;;1999.90;999.90;;;10.30;99.90;;;;;;5491635;26;20315;-68
2024/04/09 01:41:41;;;;;;;1999.90;999.90;;;10.40;99.90;;;;;;5491991;26;20002;-69
2024/04/09 01:44:07;;;;;;;1999.90;999.90;;;10.30;99.90;;;;;;5491210;26;20006;-69
2024/04/09 01:46:33;;;;;;;1999.90;999.90;;;10.20;99.90;;;;;;5491330;26;20390;-69
2024/04/09 01:48:59;;;;;;;1999.90;999.90;;;10.20;99.90;;;;;;5491556;26;19998;-69
2024/04/09 01:51:24;;;;;;;1999.90;999.90;;;10.10;99.90;;;;;;5491920;26;20042;-69
2024/04/09 01:53:50;;;;;;;1999.90;999.90;;;10.10;99.90;;;;;;5491582;26;20413;-70
2024/04/09 01:56:16;;;;;;;1999.90;999.90;;;10.10;99.90;;;;;;5492170;26;19999;-69
2024/04/09 01:58:43;;;;;;;1999.90;999.90;;;10.20;99.90;;;;;;5491442;26;19993;-69
2024/04/09 02:01:12;;;;;;;1999.90;999.90;;;10.20;99.90;;;;;;5491661;26;20009;-69
2024/04/09 02:03:38;;;;;;;1999.90;999.90;;;10.20;99.90;;;;;;5491461;26;19994;-70
2024/04/09 02:06:07;;;;;;;1999.90;999.90;;;10.20;99.90;;;;;;5491360;26;20002;-68
2024/04/09 02:08:34;;;;;;;1999.90;999.90;;;10.20;99.90;;;;;;5491014;26;20005;-69
2024/04/09 02:11:01;;;;;;;1999.90;999.90;;;10.20;99.90;;;;;;5491465;26;20002;-69
2024/04/09 02:13:29;;;;;;;1999.90;999.90;;;10.20;99.90;;;;;;5491541;26;20029;-69
2024/04/09 02:16:00;;;;;;;1999.90;999.90;;;10.20;99.90;;;;;;5491316;26;19998;-69
2024/04/09 02:18:26;;;;;;;1999.90;999.90;;;10.30;99.90;;;;;;5490704;26;19990;-69
2024/04/09 02:20:53;;;;;;;1999.90;999.90;;;10.20;99.90;;;;;;5505342;26;20001;-69
2024/04/09 02:23:19;;;;;;;1999.90;999.90;;;10.40;99.90;;;;;;5499734;26;20012;-69
2024/04/09 02:25:45;;;;;;;1999.90;999.90;;;10.30;99.90;;;;;;5490955;26;19998;-69
2024/04/09 02:28:11;;;;;;;1999.90;999.90;;;10.40;99.90;;;;;;5490298;26;20005;-69
2024/04/09 02:30:36;;;;;;;1999.90;999.90;;;10.30;99.90;;;;;;5490659;26;20009;-74
2024/04/09 02:33:03;;;;;;;1999.90;999.90;;;10.40;99.90;;;;;;5491027;26;19998;-69
2024/04/09 02:35:28;;;;;;;1999.90;999.90;;;10.40;99.90;;;;;;5491034;26;20453;-69
2024/04/09 02:37:54;;;;;;;1999.90;999.90;;;10.50;99.90;;;;;;5491122;26;20008;-69
2024/04/09 02:40:20;;;;;;;1999.90;999.90;;;10.40;99.90;;;;;;5491086;26;20476;-69
2024/04/09 02:42:47;;;;;;;1999.90;999.90;;;10.40;99.90;;;;;;5489263;26;20444;-69
2024/04/09 02:45:13;;;;;;;1999.90;999.90;;;10.40;99.90;;;;;;5490942;26;20047;-68
2024/04/09 02:47:39;;;;;;;1999.90;999.90;;;10.40;99.90;;;;;;5490643;26;20001;-69
2024/04/09 02:50:05;;;;;;;1999.90;999.90;;;10.30;99.90;;;;;;5490967;26;20005;-68
2024/04/09 02:52:31;;;;;;;1999.90;999.90;;;10.20;99.90;;;;;;5490427;26;20021;-69
2024/04/09 02:54:57;;;;;;;1999.90;999.90;;;10.10;99.90;;;;;;5490673;26;20005;-69
2024/04/09 02:57:23;;;;;;;1999.90;999.90;;;10.10;99.90;;;;;;5490682;26;20425;-69
2024/04/09 02:59:52;;;;;;;1999.90;999.90;;;10.00;99.90;;;;;;5490746;26;19994;-69
2024/04/09 03:02:18;;;;;;;1999.90;999.90;;;10.00;99.90;;;;;;5490649;26;20010;-69
2024/04/09 03:04:44;;;;;;;1999.90;999.90;;;10.00;99.90;;;;;;5490513;26;20429;-69
2024/04/09 03:07:10;;;;;;;1999.90;999.90;;;9.90;99.90;;;;;;5490063;26;20182;-68
2024/04/09 03:09:36;;;;;;;1999.90;999.90;;;9.90;99.90;;;;;;5490520;26;20013;-69
2024/04/09 03:12:02;;;;;;;1999.90;999.90;;;9.90;99.90;;;;;;5490544;26;20005;-68
2024/04/09 03:14:28;;;;;;;1999.90;999.90;;;9.90;99.90;;;;;;5490391;26;20078;-69
2024/04/09 03:16:54;;;;;;;1999.90;999.90;;;9.80;99.90;;;;;;5490894;26;19994;-69
2024/04/09 03:19:20;;;;;;;1999.90;999.90;;;9.80;99.90;;;;;;5489435;26;19994;-69
2024/04/09 03:21:45;;;;;;;1999.90;999.90;;;9.70;99.90;;;;;;5514353;26;20473;-69
2024/04/09 03:24:11;;;;;;;1999.90;999.90;;;9.70;99.90;;;;;;5490261;26;20016;-69
2024/04/09 03:26:40;;;;;;;1999.90;999.90;;;9.70;99.90;;;;;;5489740;26;20013;-69
2024/04/09 03:29:07;;;;;;;1999.90;999.90;;;9.80;99.90;;;;;;5489716;26;20009;-69
2024/04/09 03:31:32;;;;;;;1999.90;999.90;;;9.90;99.90;;;;;;5490172;26;20422;-69
2024/04/09 03:34:00;;;;;;;1999.90;999.90;;;10.00;99.90;;;;;;5490202;26;20005;-69
2024/04/09 03:36:26;;;;;;;1999.90;999.90;;;9.90;99.90;;;;;;5489571;26;20367;-68
2024/04/09 03:38:52;;;;;;;1999.90;999.90;;;9.70;99.90;;;;;;5489792;26;19990;-68
2024/04/09 03:41:18;;;;;;;1999.90;999.90;;;9.50;99.90;;;;;;5489799;26;20329;-68
2024/04/09 03:43:43;;;;;;;1999.90;999.90;;;9.50;99.90;;;;;;5489580;26;20007;-69
2024/04/09 03:46:13;;;;;;;1999.90;999.90;;;9.60;99.90;;;;;;5490423;26;20006;-68
2024/04/09 03:48:45;;;;;;;1999.90;999.90;;;9.50;99.90;;;;;;5489787;26;19994;-69
2024/04/09 03:51:15;;;;;;;1999.90;999.90;;;9.60;99.90;;;;;;5490056;26;20459;-69
2024/04/09 03:53:41;;;;;;;1999.90;999.90;;;9.60;99.90;;;;;;5489810;26;19994;-69
2024/04/09 03:56:07;;;;;;;1999.90;999.90;;;9.50;99.90;;;;;;5489829;26;20333;-69
2024/04/09 03:58:39;;;;;;;1999.90;999.90;;;9.50;99.90;;;;;;5488999;26;19994;-74
2024/04/09 04:01:05;;;;;;;1999.90;999.90;;;9.40;99.90;;;;;;5487310;26;20026;-69
2024/04/09 04:03:32;;;;;;;1999.90;999.90;;;9.30;99.90;;;;;;5489745;26;19990;-69
2024/04/09 04:05:59;;;;;;;1999.90;999.90;;;9.30;99.90;;;;;;5489593;26;19998;-69
2024/04/09 04:08:32;;;;;;;1999.90;999.90;;;9.30;99.90;;;;;;5488810;26;19995;-69
2024/04/09 04:11:00;;;;;;;1999.90;999.90;;;9.40;99.90;;;;;;5489507;26;20005;-74
2024/04/09 04:13:28;;;;;;;1999.90;999.90;;;9.30;99.90;;;;;;5489618;26;20029;-75
2024/04/09 04:16:06;;;;;;;1999.90;999.90;;;9.40;99.90;;;;;;5489540;26;20008;-69
2024/04/09 04:18:45;;;;;;;1999.90;999.90;;;9.50;99.90;;;;;;5489269;26;20005;-69
2024/04/09 04:21:19;;;;;;;1999.90;999.90;;;9.50;99.90;;;;;;5508436;26;20005;-69
2024/04/09 04:23:46;;;;;;;1999.90;999.90;;;9.50;99.90;;;;;;5490817;26;19994;-69
2024/04/09 04:26:17;;;;;;;1999.90;999.90;;;9.50;99.90;;;;;;5489458;26;20022;-69
2024/04/09 04:28:45;;;;;;;1999.90;999.90;;;9.50;99.90;;;;;;5489076;26;20006;-69
2024/04/09 04:31:12;;;;;;;1999.90;999.90;;;9.60;99.90;;;;;;5491069;26;20092;-69
2024/04/09 04:33:39;;;;;;;1999.90;999.90;;;9.60;99.90;;;;;;5491047;26;20009;-69
2024/04/09 04:36:05;;;;;;;1999.90;999.90;;;9.70;99.90;;;;;;5492685;26;20543;-75
2024/04/09 04:38:31;;;;;;;1999.90;999.90;;;9.70;99.90;;;;;;5492837;26;20002;-75
2024/04/09 04:40:57;;;;;;;1999.90;999.90;;;9.80;99.90;;;;;;5492496;26;20009;-69
2024/04/09 04:43:23;;;;;;;1999.90;999.90;;;9.80;99.90;;;;;;5492675;26;20425;-69
2024/04/09 04:45:49;;;;;;;1999.90;999.90;;;9.90;99.90;;;;;;5492477;26;19998;-69
2024/04/09 04:48:18;;;;;;;1999.90;999.90;;;9.80;99.90;;;;;;5492672;26;19994;-75
2024/04/09 04:50:47;;;;;;;1999.90;999.90;;;9.70;99.90;;;;;;5492414;26;20002;-69
2024/04/09 04:53:13;;;;;;;1999.90;999.90;;;9.70;99.90;;;;;;5492495;26;20310;-69
2024/04/09 04:55:39;;;;;;;1999.90;999.90;;;9.70;99.90;;;;;;5492250;26;20009;-69
2024/04/09 04:58:05;;;;;;;1999.90;999.90;;;9.70;99.90;;;;;;5491784;26;20006;-71
2024/04/09 05:00:32;;;;;;;1999.90;999.90;;;9.70;99.90;;;;;;5490755;26;20001;-69
2024/04/09 05:02:58;;;;;;;1999.90;999.90;;;9.70;99.90;;;;;;5492224;26;20325;-69
2024/04/09 05:05:24;;;;;;;1999.90;999.90;;;9.70;99.90;;;;;;5491917;26;20009;-69
2024/04/09 05:07:50;;;;;;;1999.90;999.90;;;9.60;99.90;;;;;;5492060;26;19998;-71
2024/04/09 05:10:16;;;;;;;1999.90;999.90;;;9.60;99.90;;;;;;5492007;26;20009;-68
2024/04/09 05:12:46;;;;;;;1999.90;999.90;;;9.60;99.90;;;;;;5491729;26;20013;-69
2024/04/09 05:15:13;;;;;;;1999.90;999.90;;;9.50;99.90;;;;;;5492200;26;20156;-69
2024/04/09 05:17:42;;;;;;;1999.90;999.90;;;9.50;99.90;;;;;;5492120;26;19998;-69
2024/04/09 05:20:11;;;;;;;1999.90;999.90;;;9.60;99.90;;;;;;5459245;26;19998;-68
2024/04/09 05:22:42;;;;;;;1999.90;999.90;;;9.50;99.90;;;;;;5491246;26;20436;-69
2024/04/09 05:25:11;;;;;;;1999.90;999.90;;;9.50;99.90;;;;;;5490945;26;20326;-69
2024/04/09 05:27:37;;;;;;;1999.90;999.90;;;9.60;99.90;;;;;;5491353;26;20013;-69
2024/04/09 05:30:05;;;;;;;1999.90;999.90;;;9.60;99.90;;;;;;5491761;26;20002;-69
2024/04/09 05:32:35;;;;;;;1999.90;999.90;;;9.70;99.90;;;;;;5488527;26;19998;-70
2024/04/09 05:35:01;;;;;;;1999.90;999.90;;;9.70;99.90;;;;;;5463992;26;20070;-70
2024/04/09 05:37:27;;;;;;;1999.90;999.90;;;9.60;99.90;;;;;;5485152;26;20010;-69
2024/04/09 05:39:52;;;;;;;1999.90;999.90;;;9.60;99.90;;;;;;5486568;26;20078;-74
2024/04/09 05:42:18;;;;;;;1999.90;999.90;;;9.60;99.90;;;;;;5490653;26;20009;-74
2024/04/09 05:44:44;;;;;;;1999.90;999.90;;;9.60;99.90;;;;;;5478134;26;20078;-69
2024/04/09 05:47:09;;;;;;;1999.90;999.90;;;9.70;99.90;;;;;;5465894;26;20029;-75
2024/04/09 05:49:35;;;;;;;1999.90;999.90;;;9.70;99.90;;;;;;5484411;26;20074;-68
2024/04/09 05:52:01;;;;;;;1999.90;999.90;;;9.70;99.90;;;;;;5474886;26;19998;-68
2024/04/09 05:54:28;;;;;;;1999.90;999.90;;;9.70;99.90;;;;;;5486677;26;20334;-74
2024/04/09 05:56:54;;;;;;;1999.90;999.90;;;9.70;99.90;;;;;;5490186;26;19998;-69
2024/04/09 05:59:20;;;;;;;1999.90;999.90;;;9.70;99.90;;;;;;5489762;26;19994;-75
2024/04/09 06:01:46;;;;;;;1999.90;999.90;;;9.80;99.90;;;;;;5490277;26;20002;-69
2024/04/09 06:04:11;;;;;;;1999.90;999.90;;;9.90;99.90;;;;;;5490404;26;20056;-70
2024/04/09 06:06:37;;;;;;;1999.90;999.90;;;9.90;99.90;;;;;;5488870;26;20018;-75
2024/04/09 06:09:03;;;;;;;1999.90;999.90;;;9.70;99.90;;;;;;5488184;26;20002;-75
2024/04/09 06:11:29;;;;;;;1999.90;999.90;;;9.60;99.90;;;;;;5473618;26;20025;-68
2024/04/09 06:13:55;;;;;;;1999.90;999.90;;;9.50;99.90;;;;;;5481013;26;20025;-70
2024/04/09 06:16:21;;;;;;;1999.90;999.90;;;9.40;99.90;;;;;;5483234;26;20329;-69
2024/04/09 06:18:47;;;;;;;1999.90;999.90;;;9.30;99.90;;;;;;5452033;26;20074;-68
2024/04/09 06:21:13;;;;;;;1999.90;999.90;;;9.20;99.90;;;;;;5480821;26;19994;-68
2024/04/09 06:23:39;;;;;;;1999.90;999.90;;;9.20;99.90;;;;;;5487996;26;20013;-69
2024/04/09 06:26:05;;;;;;;1999.90;999.90;;;9.20;99.90;;;;;;5455696;26;20297;-75
2024/04/09 06:28:31;;;;;;;1999.90;999.90;;;9.20;99.90;;;;;;5488857;26;20352;-74
2024/04/09 06:30:57;;;;;;;1999.90;999.90;;;9.10;99.90;;;;;;5476564;26;20057;-75
2024/04/09 06:33:22;;;;;;;1999.90;999.90;;;9.10;99.90;;;;;;5479902;26;19998;-69
2024/04/09 06:35:48;;;;;;;1999.90;999.90;;;9.20;99.90;;;;;;5482119;26;20026;-75
2024/04/09 06:38:17;;;;;;;1999.90;999.90;;;9.40;99.90;;;;;;5488146;26;20004;-69
2024/04/09 06:40:43;;;;;;;1999.90;999.90;;;9.50;99.90;;;;;;5496502;26;20464;-69
2024/04/09 06:43:10;;;;;;;1999.90;999.90;;;9.60;99.90;;;;;;5486805;26;19994;-74
2024/04/09 06:45:36;;;;;;;1999.90;999.90;;;9.80;99.90;;;;;;5488202;26;20013;-71
2024/04/09 06:48:02;;;;;;;1999.90;999.90;;;9.90;99.90;;;;;;5486610;26;20022;-74
2024/04/09 06:50:28;;;;;;;1999.90;999.90;;;10.10;99.90;;;;;;5474418;26;20069;-73
2024/04/09 06:52:53;;;;;;;1999.90;999.90;;;10.20;99.90;;;;;;5482655;26;20006;-70
2024/04/09 06:55:19;;;;;;;1999.90;999.90;;;10.40;99.90;;;;;;5482648;26;20017;-71
2024/04/09 06:57:45;;;;;;;1999.90;999.90;;;10.50;99.90;;;;;;5479708;26;19994;-74
2024/04/09 07:00:14;;;;;;;1999.90;999.90;;;10.70;99.90;;;;;;5467899;26;20021;-75
2024/04/09 07:02:40;;;;;;;1999.90;999.90;;;10.80;99.90;;;;;;5464496;26;20009;-74
2024/04/09 07:05:07;;;;;;;1999.90;999.90;;;10.90;99.90;;;;;;5486441;26;20048;-70
2024/04/09 07:07:34;;;;;;;1999.90;999.90;;;11.40;99.90;;;;;;5466163;26;20002;-74
2024/04/09 07:10:00;;;;;;;1999.90;999.90;;;11.90;99.90;;;;;;5482734;26;20058;-70
2024/04/09 07:12:27;;;;;;;1999.90;999.90;;;11.80;99.90;;;;;;5485471;26;19998;-74
2024/04/09 07:14:53;;;;;;;1999.90;999.90;;;11.10;99.90;;;;;;5475370;26;20407;-73
2024/04/09 07:17:19;;;;;;;1999.90;999.90;;;10.20;99.90;;;;;;5484797;26;20077;-73
2024/04/09 07:19:45;;;;;;;1999.90;999.90;;;9.80;99.90;;;;;;5486410;26;20002;-69
2024/04/09 07:22:11;;;;;;;1999.90;999.90;;;9.60;99.90;;;;;;5485725;26;20014;-74
2024/04/09 07:24:36;;;;;;;1999.90;999.90;;;9.50;99.90;;;;;;5484799;26;19998;-73
2024/04/09 07:27:02;;;;;;;1999.90;999.90;;;9.50;99.90;;;;;;5485793;26;20010;-73
2024/04/09 07:29:28;;;;;;;1999.90;999.90;;;9.60;99.90;;;;;;5478514;26;20012;-73
2024/04/09 07:31:54;;;;;;;1999.90;999.90;;;9.70;99.90;;;;;;5485724;26;20348;-70
2024/04/09 07:34:20;;;;;;;1999.90;999.90;;;10.10;99.90;;;;;;5483747;26;19999;-74
2024/04/09 07:36:46;;;;;;;1999.90;999.90;;;10.50;99.90;;;;;;5477697;26;19998;-73
2024/04/09 07:39:14;;;;;;;1999.90;999.90;;;10.80;99.90;;;;;;5479742;26;20252;-70
2024/04/09 07:41:41;;;;;;;1999.90;999.90;;;11.00;99.90;;;;;;5447019;26;20002;-73
2024/04/09 07:44:07;;;;;;;1999.90;999.90;;;11.30;99.90;;;;;;5485818;26;20012;-75
2024/04/09 07:46:33;;;;;;;1999.90;999.90;;;11.60;99.90;;;;;;5471377;26;20440;-74
2024/04/09 07:49:04;;;;;;;1999.90;999.90;;;11.60;99.90;;;;;;5481482;26;19998;-75
2024/04/09 07:51:30;;;;;;;1999.90;999.90;;;11.70;99.90;;;;;;5485892;26;20027;-75
2024/04/09 07:53:56;;;;;;;1999.90;999.90;;;12.00;99.90;;;;;;5449907;26;20397;-74
2024/04/09 07:56:22;;;;;;;1999.90;999.90;;;12.70;99.90;;;;;;5485715;26;19994;-69
2024/04/09 07:58:47;;;;;;;1999.90;999.90;;;13.70;99.90;;;;;;5484007;26;19994;-75
2024/04/09 08:01:13;;;;;;;1999.90;999.90;;;12.80;99.90;;;;;;5485907;26;19998;-70
2024/04/09 08:03:38;;;;;;;1999.90;999.90;;;11.80;99.90;;;;;;5485857;26;19999;-75
2024/04/09 08:06:06;;;;;;;1999.90;999.90;;;11.20;99.90;;;;;;5489111;26;20012;-69
2024/04/09 08:08:32;;;;;;;1999.90;999.90;;;11.10;99.90;;;;;;5489489;26;20009;-70
2024/04/09 08:10:58;;;;;;;1999.90;999.90;;;13.00;99.90;;;;;;5489773;26;20410;-70
2024/04/09 08:13:24;;;;;;;1999.90;999.90;;;16.60;99.90;;;;;;5489537;26;20002;-74
2024/04/09 08:15:52;;;;;;;1999.90;999.90;;;19.20;99.90;;;;;;5489903;26;20009;-69
2024/04/09 08:18:18;;;;;;;1999.90;999.90;;;20.80;99.90;;;;;;5490316;26;20006;-74
2024/04/09 08:20:44;;;;;;;1999.90;999.90;;;21.40;99.90;;;;;;5488978;26;20063;-74
2024/04/09 08:23:10;;;;;;;1999.90;999.90;;;20.00;99.90;;;;;;5451141;26;19999;-68
2024/04/09 08:25:36;;;;;;;1999.90;999.90;;;20.30;99.90;;;;;;5490057;26;20013;-68
2024/04/09 08:28:02;;;;;;;1999.90;999.90;;;20.70;99.90;;;;;;5482873;26;19998;-73
2024/04/09 08:30:28;;;;;;;1999.90;999.90;;;21.90;99.90;;;;;;5488438;26;20010;-73
2024/04/09 08:32:55;;;;;;;1999.90;999.90;;;20.40;99.90;;;;;;5486974;26;19994;-73
2024/04/09 08:35:20;;;;;;;1999.90;999.90;;;20.30;99.90;;;;;;5489039;26;20030;-73
2024/04/09 08:37:46;;;;;;;1999.90;999.90;;;21.10;99.90;;;;;;5489687;26;20125;-74
2024/04/09 08:40:17;;;;;;;1999.90;999.90;;;21.80;99.90;;;;;;5492398;26;20006;-74
2024/04/09 08:42:44;;;;;;;1999.90;999.90;;;22.40;99.90;;;;;;5487735;26;20086;-74
2024/04/09 08:45:16;;;;;;;1999.90;999.90;;;22.10;99.90;;;;;;5489366;26;20690;-73
2024/04/09 08:47:43;;;;;;;1999.90;999.90;;;21.40;99.90;;;;;;5489328;26;20078;-74
2024/04/09 08:50:10;;;;;;;1999.90;999.90;;;19.90;99.90;;;;;;5482884;26;20013;-73
2024/04/09 08:52:36;;;;;;;1999.90;999.90;;;16.20;99.90;;;;;;5487642;26;20026;-72
2024/04/09 08:55:07;;;;;;;1999.90;999.90;;;13.40;99.90;;;;;;5487623;26;20047;-72
2024/04/09 08:57:32;;;;;;;1999.90;999.90;;;11.80;99.90;;;;;;5489236;26;19998;-67
2024/04/09 09:00:00;;;;;;;1999.90;999.90;;;11.90;99.90;;;;;;5489405;26;20070;-67
2024/04/09 09:02:26;;;;;;;1999.90;999.90;;;13.10;99.90;;;;;;5488175;26;20017;-74
2024/04/09 09:04:51;;;;;;;1999.90;999.90;;;16.70;99.90;;;;;;5487553;26;19994;-74
2024/04/09 09:07:19;;;;;;;1999.90;999.90;;;19.20;99.90;;;;;;5487694;26;20448;-73
2024/04/09 09:09:47;;;;;;;1999.90;999.90;;;20.40;99.90;;;;;;5488801;26;20029;-74
2024/04/09 09:12:13;;;;;;;1999.90;999.90;;;21.90;99.90;;;;;;5453428;26;20005;-75
2024/04/09 09:14:52;;;;;;;1999.90;999.90;;;22.20;99.90;;;;;;5454578;26;20006;-68
2024/04/09 09:17:18;;;;;;;1999.90;999.90;;;22.50;99.90;;;;;;5487418;26;19998;-69
2024/04/09 09:19:43;;;;;;;1999.90;999.90;;;23.60;99.90;;;;;;5488520;26;20013;-69
2024/04/09 09:22:11;;;;;;;1999.90;999.90;;;22.80;99.90;;;;;;5487520;26;20013;-68
2024/04/09 09:24:38;;;;;;;1999.90;999.90;;;21.30;99.90;;;;;;5487262;26;20026;-73
2024/04/09 09:27:05;;;;;;;1999.90;999.90;;;21.60;99.90;;;;;;5488002;26;20070;-69
2024/04/09 09:29:32;;;;;;;1999.90;999.90;;;21.40;99.90;;;;;;5488245;26;20022;-67
2024/04/09 09:31:59;;;;;;;1999.90;999.90;;;20.60;99.90;;;;;;5487852;26;20001;-73
2024/04/09 09:34:42;;;;;;;1999.90;999.90;;;19.10;99.90;;;;;;5487910;26;20005;-71
2024/04/09 09:37:10;;;;;;;1999.90;999.90;;;16.90;99.90;;;;;;5476294;26;19998;-73
2024/04/09 09:39:40;;;;;;;1999.90;999.90;;;17.50;99.90;;;;;;5493896;26;20127;-67
2024/04/09 09:42:10;;;;;;;1999.90;999.90;;;18.90;99.90;;;;;;5495059;26;19998;-67
2024/04/09 09:44:39;;;;;;;1999.90;999.90;;;18.90;99.90;;;;;;5487795;26;20030;-68
2024/04/09 09:47:06;;;;;;;1999.90;999.90;;;20.10;99.90;;;;;;5487986;26;20078;-72
2024/04/09 09:49:33;;;;;;;1999.90;999.90;;;20.40;99.90;;;;;;5488138;26;20358;-71
2024/04/09 09:52:00;;;;;;;1999.90;999.90;;;20.10;99.90;;;;;;5485313;26;20446;-67
2024/04/09 09:54:27;;;;;;;1999.90;999.90;;;17.60;99.90;;;;;;5486833;26;20444;-71
2024/04/09 09:57:15;;;;;;;1999.90;999.90;;;15.30;99.90;;;;;;5486366;26;19998;-67
2024/04/09 09:59:53;;;;;;;1999.90;999.90;;;14.00;99.90;;;;;;5475653;26;20433;-66
2024/04/09 10:02:20;;;;;;;1999.90;999.90;;;15.70;99.90;;;;;;5473974;26;20092;-67
2024/04/09 10:04:48;;;;;;;1999.90;999.90;;;15.70;99.90;;;;;;5484494;26;20026;-72
2024/04/09 10:07:16;;;;;;;1999.90;999.90;;;16.30;99.90;;;;;;5486022;26;20409;-67
2024/04/09 10:09:48;;;;;;;1999.90;999.90;;;17.10;99.90;;;;;;5486996;26;20337;-72
2024/04/09 10:12:24;;;;;;;1999.90;999.90;;;17.80;99.90;;;;;;5481238;26;20017;-66
2024/04/09 10:15:10;;;;;;;1999.90;999.90;;;17.10;99.90;;;;;;5446966;26;20317;-73
2024/04/09 10:17:52;;;;;;;1999.90;999.90;;;16.60;99.90;;;;;;5479868;26;20457;-75
2024/04/09 10:20:26;;;;;;;1999.90;999.90;;;17.30;99.90;;;;;;5482435;26;20002;-75
2024/04/09 10:22:53;;;;;;;1999.90;999.90;;;16.90;99.90;;;;;;5481037;26;20092;-68
2024/04/09 10:25:20;;;;;;;1999.90;999.90;;;15.90;99.90;;;;;;5483570;26;20440;-73
2024/04/09 10:27:47;;;;;;;1999.90;999.90;;;16.40;99.90;;;;;;5478791;26;20057;-73
2024/04/09 10:30:16;;;;;;;1999.90;999.90;;;15.90;99.90;;;;;;5483958;26;20010;-74
2024/04/09 10:32:55;;;;;;;1999.90;999.90;;;16.00;99.90;;;;;;5478433;26;19998;-74
2024/04/09 10:35:22;;;;;;;1999.90;999.90;;;16.10;99.90;;;;;;5478186;26;20005;-73
2024/04/09 10:37:48;;;;;;;1999.90;999.90;;;15.60;99.90;;;;;;5483578;26;19998;-74
2024/04/09 10:40:14;;;;;;;1999.90;999.90;;;15.40;99.90;;;;;;5483320;26;20012;-74
2024/04/09 10:42:40;;;;;;;1999.90;999.90;;;15.10;99.90;;;;;;5483358;26;20002;-69
2024/04/09 10:45:06;;;;;;;1999.90;999.90;;;14.80;99.90;;;;;;5479795;26;19994;-74
2024/04/09 10:47:32;;;;;;;1999.90;999.90;;;14.90;99.90;;;;;;5489038;26;19999;-71
2024/04/09 10:49:58;;;;;;;1999.90;999.90;;;15.40;99.90;;;;;;5486659;26;20002;-71
2024/04/09 10:52:24;;;;;;;1999.90;999.90;;;15.40;99.90;;;;;;5487315;26;20030;-70
2024/04/09 10:54:50;;;;;;;1999.90;999.90;;;15.20;99.90;;;;;;5482703;26;20013;-74
2024/04/09 10:57:15;;;;;;;1999.90;999.90;;;15.40;99.90;;;;;;5486902;26;20441;-74
2024/04/09 10:59:41;;;;;;;1999.90;999.90;;;16.20;99.90;;;;;;5485966;26;20066;-69
2024/04/09 11:02:07;;;;;;;1999.90;999.90;;;15.80;99.90;;;;;;5483653;26;20010;-74
2024/04/09 11:04:34;;;;;;;1999.90;999.90;;;14.90;99.90;;;;;;5483431;26;20012;-69
2024/04/09 11:07:05;;;;;;;1999.90;999.90;;;14.30;99.90;;;;;;5478199;26;20013;-73
2024/04/09 11:09:31;;;;;;;1999.90;999.90;;;14.70;99.90;;;;;;5486413;26;20013;-69
2024/04/09 11:11:57;;;;;;;1999.90;999.90;;;14.70;99.90;;;;;;5457970;26;20006;-70
2024/04/09 11:14:24;;;;;;;1999.90;999.90;;;15.00;99.90;;;;;;5484969;26;20001;-73
2024/04/09 11:16:49;;;;;;;1999.90;999.90;;;15.50;99.90;;;;;;5482244;26;20487;-69
2024/04/09 11:19:29;;;;;;;1999.90;999.90;;;15.10;99.90;;;;;;5479843;26;19998;-73
2024/04/09 11:21:54;;;;;;;1999.90;999.90;;;14.80;99.90;;;;;;5481818;26;19990;-74
2024/04/09 11:24:22;;;;;;;1999.90;999.90;;;15.00;99.90;;;;;;5485721;26;20021;-69
2024/04/09 11:26:47;;;;;;;1999.90;999.90;;;14.40;99.90;;;;;;5484197;26;20030;-70
2024/04/09 11:29:20;;;;;;;1999.90;999.90;;;15.20;99.90;;;;;;5486278;26;20336;-71
2024/04/09 11:31:46;;;;;;;1999.90;999.90;;;15.50;99.90;;;;;;5484226;26;20325;-74
2024/04/09 11:34:22;;;;;;;1999.90;999.90;;;15.70;99.90;;;;;;5485018;26;20010;-73
2024/04/09 11:36:48;;;;;;;1999.90;999.90;;;15.50;99.90;;;;;;5485478;26;20010;-71
2024/04/09 11:39:15;;;;;;;1999.90;999.90;;;15.60;99.90;;;;;;5484148;26;20070;-69
2024/04/09 12:00:05;;;;;;;1999.90;999.90;;;14.20;99.90;;;;;;5342875;21;20088;-80
2024/04/09 12:02:31;;;;;;;1999.90;999.90;;;14.30;99.90;;;;;;5312445;26;20006;-80
2024/04/09 12:04:57;;;;;;;1999.90;999.90;;;14.70;99.90;;;;;;5283179;27;20024;-80
2024/04/09 12:07:22;;;;;;;1999.90;999.90;;;15.00;99.90;;;;;;5276665;27;21263;-78
2024/04/09 12:09:48;;;;;;;1999.90;999.90;;;15.00;99.90;;;;;;5269324;27;19998;-79
2024/04/09 12:12:14;;;;;;;1999.90;999.90;;;14.80;99.90;;;;;;5264353;26;20407;-83
2024/04/09 12:14:44;;;;;;;1999.90;999.90;;;14.20;99.90;;;;;;5286036;27;19999;-77
2024/04/09 12:17:10;;;;;;;1999.90;999.90;;;14.20;99.90;;;;;;5279471;27;20005;-86
2024/04/09 12:19:37;;;;;;;1999.90;999.90;;;14.40;99.90;;;;;;5282408;27;20006;-83